Etusivu
METAR-TAF:

METAR-TAF

Lentoasemat :

Oshima, Japani

Leveyspiiri: 34-47N, Pituuspiiri: 139-22E, korkeus merenpinnasta: 38 m

Tämänhetkinen sää

Tämä raportti tehtiin 8 tuntia ja 49 minuuttia sitten, kello 08.00 UTC
Tuuli 5 kn pohjoisesta, vaihdellen pohjoisen/luoteen ja pohjoisen/koillisen välillä
Lämpötila 23°C
Kosteus 78%
Ilmanpaine 1014 hPa
Näkyvyys 10 km tai enemmän
Muutamia pilviä 1500 ft:n korkeudessa

METAR: RJTO 210800Z 36005KT 330V030 9999 FEW015 23/19 Q1014

Aika: 01:49 (16:49 UTC)


TAF: puuttuu

Säähavainnot ja -ennusteet yli 4000 lentoasemalta (METAR- ja TAF-raportit).

Käytössä olevat sääasemat on merkitty karttaan keltaisilla ja punaisilla pisteillä.

Aseta hiiri pisteen päälle nähdäksesi sääaseman nimen.

Klikkaa sitten nähdäksesi säähavainnot ja -ennusteet.

Kartan vaihtaminen: klikkaa mustalla rastilla varustettuja vihreitä pisteitä, niin voit zoomata sisään; viivalla varustettua vihreää pistettä, niin voit zoomata ulos tai vihreitä nuolia, niin pääset viereisille kartoille.


METAR-TAF: